createdAt,value
2023-05-09T00:00:06.243Z,139.49
2023-05-09T00:01:06.227Z,140.54
2023-05-09T00:02:06.314Z,140.30
2023-05-09T00:03:06.379Z,140.50
2023-05-09T00:04:06.370Z,145.25
2023-05-09T00:05:06.325Z,143.44
2023-05-09T00:06:06.372Z,138.35
2023-05-09T00:07:06.422Z,139.04
2023-05-09T00:08:06.433Z,136.93
2023-05-09T00:09:06.475Z,137.50
2023-05-09T00:10:06.508Z,137.75
2023-05-09T00:11:06.611Z,138.10
2023-05-09T00:12:06.579Z,136.60
2023-05-09T00:13:06.621Z,137.10
2023-05-09T00:14:06.621Z,137.84
2023-05-09T00:15:06.647Z,135.52
2023-05-09T00:16:06.724Z,136.08
2023-05-09T00:17:06.723Z,134.61
2023-05-09T00:18:06.741Z,137.01
2023-05-09T00:19:06.789Z,137.35
2023-05-09T00:20:06.802Z,138.15
2023-05-09T00:21:06.848Z,141.55
2023-05-09T00:22:06.866Z,141.81
2023-05-09T00:23:06.893Z,139.47
2023-05-09T00:24:06.950Z,141.41
2023-05-09T00:25:06.968Z,142.25
2023-05-09T00:26:06.989Z,140.90
2023-05-09T00:27:07.122Z,144.70
2023-05-09T00:28:07.106Z,145.84
2023-05-09T00:29:07.106Z,145.90
2023-05-09T00:30:07.148Z,145.90
2023-05-09T00:31:07.179Z,145.21
2023-05-09T00:32:07.260Z,146.80
2023-05-09T00:33:07.269Z,146.60
2023-05-09T00:34:07.286Z,147.25
2023-05-09T00:35:07.316Z,144.60
2023-05-09T00:36:07.340Z,148.60
2023-05-09T00:37:07.379Z,146.12
2023-05-09T00:38:07.412Z,145.81
2023-05-09T00:39:07.424Z,145.30
2023-05-09T00:40:07.468Z,145.86
2023-05-09T00:41:07.496Z,144.67
2023-05-09T00:42:07.536Z,143.88
2023-05-09T00:43:07.646Z,143.83
2023-05-09T00:44:07.608Z,145.04
2023-05-09T00:45:07.666Z,143.54
2023-05-09T00:46:07.706Z,143.94
2023-05-09T00:47:07.703Z,144.77
2023-05-09T00:48:07.801Z,142.02
2023-05-09T00:49:07.758Z,142.43
2023-05-09T00:50:07.789Z,144.22
2023-05-09T00:51:07.841Z,140.41
2023-05-09T00:52:07.878Z,138.12
2023-05-09T00:53:07.928Z,140.63
2023-05-09T00:54:09.289Z,140.52
2023-05-09T00:55:07.961Z,139.48
2023-05-09T00:56:07.999Z,142.17
2023-05-09T00:57:08.051Z,142.30
2023-05-09T00:58:08.070Z,141.52
2023-05-09T00:59:08.192Z,138.31
2023-05-09T01:00:08.185Z,141.45
2023-05-09T01:01:08.219Z,139.78
2023-05-09T01:02:08.219Z,144.41
2023-05-09T01:03:08.486Z,144.67
2023-05-09T01:04:08.334Z,142.69
2023-05-09T01:05:08.338Z,139.89
2023-05-09T01:06:08.382Z,140.08
2023-05-09T01:07:08.429Z,144.55
2023-05-09T01:08:08.468Z,142.94
2023-05-09T01:09:08.509Z,140.30
2023-05-09T01:10:08.578Z,140.03
2023-05-09T01:11:08.580Z,141.45
2023-05-09T01:12:08.616Z,143.70
2023-05-09T01:13:08.725Z,141.93
2023-05-09T01:14:08.697Z,145.80
2023-05-09T01:15:08.814Z,144.17
2023-05-09T01:16:08.894Z,140.77
2023-05-09T01:17:08.820Z,140.94
2023-05-09T01:18:08.891Z,147.24
2023-05-09T01:19:08.988Z,145.36
2023-05-09T01:20:08.950Z,147.96
2023-05-09T01:21:08.993Z,143.98
2023-05-09T01:22:09.049Z,143.70
2023-05-09T01:23:09.049Z,143.30
2023-05-09T01:24:09.080Z,146.29
2023-05-09T01:25:09.129Z,145.48
2023-05-09T01:26:09.149Z,145.68
2023-05-09T01:27:09.215Z,143.55
2023-05-09T01:28:09.256Z,144.13
2023-05-09T01:29:09.277Z,144.42
2023-05-09T01:30:09.326Z,147.50
2023-05-09T01:31:09.496Z,146.37
2023-05-09T01:32:09.450Z,149.41
2023-05-09T01:33:09.508Z,150.40
2023-05-09T01:34:09.487Z,150.00
2023-05-09T01:35:09.533Z,148.99
2023-05-09T01:36:09.575Z,153.44
2023-05-09T01:37:09.629Z,154.53
2023-05-09T01:38:09.648Z,158.50
2023-05-09T01:39:09.696Z,158.84
2023-05-09T01:40:09.748Z,158.74
2023-05-09T01:41:09.792Z,162.89
2023-05-09T01:42:09.830Z,161.13
2023-05-09T01:43:09.947Z,163.41
2023-05-09T01:44:09.966Z,163.37
2023-05-09T01:45:09.969Z,162.62
2023-05-09T01:46:10.021Z,164.45
2023-05-09T01:47:10.114Z,161.14
2023-05-09T01:48:10.149Z,163.86
2023-05-09T01:49:10.121Z,161.65
2023-05-09T01:50:10.169Z,165.05
2023-05-09T01:51:10.209Z,165.63
2023-05-09T01:52:10.263Z,166.69
2023-05-09T01:53:10.304Z,166.50
2023-05-09T01:54:10.331Z,168.25
2023-05-09T01:55:10.383Z,166.23
2023-05-09T01:56:10.433Z,164.89
2023-05-09T01:57:10.479Z,165.13
2023-05-09T01:58:10.518Z,165.26
2023-05-09T01:59:10.576Z,165.21
2023-05-09T02:00:10.630Z,163.98
2023-05-09T02:01:10.705Z,164.87
2023-05-09T02:02:10.743Z,168.79
2023-05-09T02:03:10.850Z,168.80
2023-05-09T02:04:10.794Z,167.15
2023-05-09T02:05:10.829Z,166.79
2023-05-09T02:06:10.865Z,163.86
2023-05-09T02:07:10.918Z,163.11
2023-05-09T02:08:10.977Z,163.11
2023-05-09T02:09:11.011Z,163.11
2023-05-09T02:10:11.056Z,162.34
2023-05-09T02:11:11.093Z,164.01
2023-05-09T02:12:11.135Z,165.01
2023-05-09T02:13:11.241Z,165.15
2023-05-09T02:14:11.240Z,165.53
2023-05-09T02:15:11.311Z,166.21
2023-05-09T02:16:11.336Z,168.10
2023-05-09T02:17:11.422Z,166.92
2023-05-09T02:18:11.460Z,165.38
2023-05-09T02:19:11.557Z,164.18
2023-05-09T02:20:11.603Z,164.59
2023-05-09T02:21:11.629Z,165.92
2023-05-09T02:22:11.601Z,163.93
2023-05-09T02:23:11.657Z,163.88
2023-05-09T02:24:11.698Z,167.54
2023-05-09T02:25:11.804Z,165.81
2023-05-09T02:26:11.804Z,164.25
2023-05-09T02:27:11.924Z,165.87
2023-05-09T02:28:11.901Z,164.73
2023-05-09T02:29:11.916Z,163.24
2023-05-09T02:30:11.970Z,166.93
2023-05-09T02:31:12.011Z,167.52
2023-05-09T02:32:12.148Z,168.29
2023-05-09T02:33:12.129Z,167.91
2023-05-09T02:34:12.150Z,169.29
2023-05-09T02:35:12.427Z,168.34
2023-05-09T02:36:12.250Z,172.08
2023-05-09T02:37:12.448Z,172.12
2023-05-09T02:38:12.374Z,175.05
2023-05-09T02:39:12.381Z,172.78
2023-05-09T02:40:12.435Z,173.77
2023-05-09T02:41:12.467Z,174.60
2023-05-09T02:42:12.511Z,172.70
2023-05-09T02:43:12.560Z,173.59
2023-05-09T02:44:12.625Z,171.00
2023-05-09T02:45:12.790Z,173.51
2023-05-09T02:46:12.730Z,170.94
2023-05-09T02:47:12.743Z,170.79
2023-05-09T02:48:12.858Z,171.26
2023-05-09T02:49:22.756Z,167.42
2023-05-09T02:50:13.824Z,167.71
2023-05-09T02:51:12.888Z,168.55
2023-05-09T02:52:12.850Z,168.58
2023-05-09T02:53:12.810Z,169.51
2023-05-09T02:54:12.846Z,171.56
2023-05-09T02:55:12.917Z,169.36
2023-05-09T02:56:12.790Z,167.57
2023-05-09T02:57:12.768Z,167.73
2023-05-09T02:58:14.797Z,167.98
2023-05-09T02:59:12.754Z,171.41
2023-05-09T03:00:12.792Z,171.81
2023-05-09T03:01:12.897Z,170.16
2023-05-09T03:02:12.908Z,168.25
2023-05-09T03:03:13.056Z,171.28
2023-05-09T03:04:13.001Z,170.69
2023-05-09T03:05:13.270Z,170.59
2023-05-09T03:06:13.075Z,170.49
2023-05-09T03:07:13.221Z,173.23
2023-05-09T03:08:13.181Z,173.36
2023-05-09T03:09:13.294Z,174.22
2023-05-09T03:10:13.269Z,175.12
2023-05-09T03:11:13.323Z,177.19
2023-05-09T03:12:13.361Z,178.28
2023-05-09T03:13:13.529Z,178.17
2023-05-09T03:14:13.502Z,174.55
2023-05-09T03:15:13.749Z,175.28
2023-05-09T03:16:13.582Z,176.83
2023-05-09T03:17:13.588Z,177.56
2023-05-09T03:18:13.628Z,176.96
2023-05-09T03:19:13.695Z,176.74
2023-05-09T03:20:13.740Z,176.34
2023-05-09T03:21:13.798Z,179.52
2023-05-09T03:22:13.846Z,177.08
2023-05-09T03:23:13.965Z,175.41
2023-05-09T03:24:13.967Z,175.76
2023-05-09T03:25:14.184Z,177.33
2023-05-09T03:26:14.005Z,176.36
2023-05-09T03:27:14.028Z,174.67
2023-05-09T03:28:14.093Z,172.03
2023-05-09T03:29:14.137Z,172.10
2023-05-09T03:30:14.158Z,175.67
2023-05-09T03:31:14.221Z,172.43
2023-05-09T03:32:15.314Z,172.68
2023-05-09T03:33:14.305Z,175.09
2023-05-09T03:34:14.488Z,177.57
2023-05-09T03:35:14.596Z,178.97
2023-05-09T03:36:14.457Z,176.03
2023-05-09T03:37:14.484Z,175.62
2023-05-09T03:38:14.534Z,177.21
2023-05-09T03:39:14.672Z,176.29
2023-05-09T03:40:14.637Z,175.10
2023-05-09T03:41:14.792Z,174.28
2023-05-09T03:42:14.713Z,175.61
2023-05-09T03:43:14.764Z,174.40
2023-05-09T03:44:14.822Z,174.39
2023-05-09T03:45:15.133Z,173.26
2023-05-09T03:46:14.916Z,172.84
2023-05-09T03:47:14.944Z,171.12
2023-05-09T03:48:14.971Z,168.10
2023-05-09T03:49:15.028Z,169.32
2023-05-09T03:50:15.079Z,170.46
2023-05-09T03:51:15.102Z,170.30
2023-05-09T03:52:15.187Z,168.58
2023-05-09T03:53:15.182Z,167.26
2023-05-09T03:54:15.236Z,168.10
2023-05-09T03:55:15.620Z,166.78
2023-05-09T03:56:15.311Z,168.09
2023-05-09T03:57:15.370Z,167.92
2023-05-09T03:58:15.396Z,169.05
2023-05-09T03:59:15.452Z,169.12
2023-05-09T04:00:15.514Z,167.90
2023-05-09T04:01:15.519Z,168.44
2023-05-09T04:02:15.613Z,170.57
2023-05-09T04:03:15.682Z,171.26
2023-05-09T04:04:15.661Z,170.81
2023-05-09T04:05:16.013Z,169.11
2023-05-09T04:06:15.770Z,170.30
2023-05-09T04:07:15.804Z,167.55
2023-05-09T04:08:15.878Z,171.20
2023-05-09T04:09:15.907Z,170.25
2023-05-09T04:10:15.952Z,168.86
2023-05-09T04:11:16.075Z,166.35
2023-05-09T04:12:16.035Z,168.61
2023-05-09T04:13:16.147Z,170.87
2023-05-09T04:14:16.116Z,168.23
2023-05-09T04:15:16.415Z,170.02
2023-05-09T04:16:16.244Z,172.00
2023-05-09T04:17:16.270Z,172.21
2023-05-09T04:18:16.320Z,169.28
2023-05-09T04:19:16.555Z,172.95
2023-05-09T04:20:16.415Z,170.53
2023-05-09T04:21:16.449Z,171.69
2023-05-09T04:22:16.515Z,172.07
2023-05-09T04:23:16.530Z,171.10
2023-05-09T04:24:16.597Z,170.54
2023-05-09T04:25:16.755Z,172.93
2023-05-09T04:26:16.677Z,175.57
2023-05-09T04:27:16.822Z,169.05
2023-05-09T04:28:16.758Z,170.16
2023-05-09T04:29:16.808Z,171.21
2023-05-09T04:30:16.852Z,168.13
2023-05-09T04:31:17.015Z,172.93
2023-05-09T04:32:17.008Z,173.62
2023-05-09T04:33:16.997Z,173.82
2023-05-09T04:34:17.039Z,175.42
2023-05-09T04:35:19.832Z,172.91
2023-05-09T04:36:17.091Z,175.98
2023-05-09T04:37:17.109Z,174.12
2023-05-09T04:38:17.081Z,173.50
2023-05-09T04:39:17.061Z,172.59
2023-05-09T04:40:17.068Z,174.08
2023-05-09T04:41:17.041Z,175.18
2023-05-09T04:42:17.064Z,176.27
2023-05-09T04:43:17.115Z,176.53
2023-05-09T04:44:17.023Z,177.29
2023-05-09T04:45:17.275Z,179.34
2023-05-09T04:46:17.035Z,179.84
2023-05-09T04:47:17.016Z,180.51
2023-05-09T04:48:17.019Z,177.67
2023-05-09T04:49:17.011Z,180.14
2023-05-09T04:50:16.987Z,174.04
2023-05-09T04:51:17.050Z,174.66
2023-05-09T04:52:16.996Z,175.47
2023-05-09T04:53:16.990Z,178.73
2023-05-09T04:54:16.970Z,178.90
2023-05-09T04:55:17.191Z,177.54
2023-05-09T04:56:16.975Z,178.53
2023-05-09T04:57:18.804Z,173.68
2023-05-09T04:58:16.933Z,178.47
2023-05-09T04:59:17.013Z,179.58
2023-05-09T05:00:16.928Z,179.21
2023-05-09T05:01:16.952Z,177.89
2023-05-09T05:02:16.926Z,180.75
2023-05-09T05:03:17.006Z,181.73
2023-05-09T05:04:17.033Z,186.12
2023-05-09T05:05:17.075Z,185.60
2023-05-09T05:06:17.102Z,188.83
2023-05-09T05:07:17.154Z,190.51
2023-05-09T05:08:17.205Z,189.52
2023-05-09T05:09:17.233Z,192.49
2023-05-09T05:10:17.294Z,197.18
2023-05-09T05:11:17.317Z,191.23
2023-05-09T05:12:17.381Z,196.15
2023-05-09T05:13:17.508Z,195.80
2023-05-09T05:14:17.463Z,197.41
2023-05-09T05:15:17.577Z,200.05
2023-05-09T05:16:17.638Z,198.78
2023-05-09T05:17:17.599Z,201.48
2023-05-09T05:18:17.633Z,200.00
2023-05-09T05:19:17.677Z,205.39
2023-05-09T05:20:17.723Z,206.09
2023-05-09T05:21:17.754Z,203.00
2023-05-09T05:22:17.807Z,203.62
2023-05-09T05:23:17.838Z,207.17
2023-05-09T05:24:17.894Z,204.90
2023-05-09T05:25:17.928Z,205.81
2023-05-09T05:26:18.030Z,207.12
2023-05-09T05:27:18.023Z,203.57
2023-05-09T05:28:18.062Z,206.35
2023-05-09T05:29:18.164Z,206.05
2023-05-09T05:30:18.155Z,208.91
2023-05-09T05:31:18.284Z,211.26
2023-05-09T05:32:18.237Z,214.88
2023-05-09T05:33:18.288Z,216.49
2023-05-09T05:34:18.301Z,220.57
2023-05-09T05:35:18.356Z,229.24
2023-05-09T05:36:18.357Z,237.25
2023-05-09T05:37:18.396Z,247.18
2023-05-09T05:38:18.533Z,247.75
2023-05-09T05:39:18.446Z,249.39
2023-05-09T05:40:18.457Z,249.08
2023-05-09T05:41:18.472Z,248.89
2023-05-09T05:42:18.486Z,247.65
2023-05-09T05:43:18.512Z,249.41
2023-05-09T05:44:18.530Z,250.00
2023-05-09T05:45:18.566Z,246.34
2023-05-09T05:46:18.658Z,228.91
2023-05-09T05:47:18.640Z,220.01
2023-05-09T05:48:18.556Z,217.03
2023-05-09T05:49:18.567Z,218.31
2023-05-09T05:50:18.596Z,215.00
2023-05-09T05:51:18.627Z,216.92
2023-05-09T05:52:18.655Z,208.84
2023-05-09T05:53:18.660Z,203.46
2023-05-09T05:54:18.681Z,201.66
2023-05-09T05:55:18.715Z,196.90
2023-05-09T05:56:18.728Z,217.61
2023-05-09T05:57:18.769Z,224.87
2023-05-09T05:58:18.821Z,225.59
2023-05-09T05:59:18.831Z,231.27
2023-05-09T06:00:18.839Z,223.85
2023-05-09T06:01:18.855Z,221.59
2023-05-09T06:02:18.915Z,221.44
2023-05-09T06:03:19.110Z,215.66
2023-05-09T06:04:18.960Z,212.79
2023-05-09T06:05:18.981Z,215.94
2023-05-09T06:06:19.088Z,213.86
2023-05-09T06:07:19.031Z,208.67
2023-05-09T06:08:19.051Z,201.88
2023-05-09T06:09:19.093Z,202.92
2023-05-09T06:10:19.169Z,202.87
2023-05-09T06:11:19.171Z,199.25
2023-05-09T06:12:19.179Z,206.93
2023-05-09T06:13:19.677Z,208.64
2023-05-09T06:14:19.533Z,196.21
2023-05-09T06:15:19.262Z,206.90
2023-05-09T06:16:20.506Z,197.79
2023-05-09T06:17:19.521Z,206.12
2023-05-09T06:18:19.363Z,200.85
2023-05-09T06:19:19.627Z,201.32
2023-05-09T06:20:19.414Z,198.84
2023-05-09T06:21:19.460Z,192.04
2023-05-09T06:22:19.500Z,197.19
2023-05-09T06:23:19.582Z,206.61
2023-05-09T06:24:28.026Z,216.64
2023-05-09T06:25:20.579Z,216.69
2023-05-09T06:26:19.564Z,206.31
2023-05-09T06:27:19.557Z,194.15
2023-05-09T06:28:19.577Z,187.20
2023-05-09T06:29:19.533Z,187.45
2023-05-09T06:30:26.241Z,191.11
2023-05-09T06:31:20.660Z,191.79
2023-05-09T06:32:19.566Z,195.35
2023-05-09T06:33:19.528Z,205.72
2023-05-09T06:34:20.057Z,228.89
2023-05-09T06:35:19.592Z,260.69
2023-05-09T06:36:19.522Z,250.00
2023-05-09T06:37:19.523Z,248.13
2023-05-09T06:38:19.532Z,238.80
2023-05-09T06:39:19.574Z,213.79
2023-05-09T06:40:19.466Z,201.68
2023-05-09T06:41:19.470Z,202.16
2023-05-09T06:42:19.463Z,200.66
2023-05-09T06:43:19.450Z,200.61
2023-05-09T06:44:19.456Z,196.64
2023-05-09T06:45:19.600Z,193.88
2023-05-09T06:46:19.480Z,191.75
2023-05-09T06:47:19.411Z,190.08
2023-05-09T06:48:19.561Z,191.47
2023-05-09T06:49:19.413Z,193.43
2023-05-09T06:50:19.418Z,197.86
2023-05-09T06:51:19.544Z,192.70
2023-05-09T06:52:19.472Z,198.73
2023-05-09T06:53:19.570Z,198.63
2023-05-09T06:54:19.529Z,191.39
2023-05-09T06:55:19.560Z,189.33
2023-05-09T06:56:20.113Z,193.45
2023-05-09T06:57:19.720Z,192.05
2023-05-09T06:58:20.202Z,189.76
2023-05-09T06:59:20.073Z,193.20
2023-05-09T07:00:19.705Z,185.93
2023-05-09T07:01:19.890Z,180.59
2023-05-09T07:02:19.793Z,176.15
2023-05-09T07:03:19.867Z,174.77
2023-05-09T07:04:19.820Z,172.52
2023-05-09T07:05:19.904Z,177.83
2023-05-09T07:06:19.881Z,190.85
2023-05-09T07:07:19.992Z,197.74
2023-05-09T07:08:19.933Z,197.20
2023-05-09T07:09:19.959Z,205.23
2023-05-09T07:10:19.934Z,200.58
2023-05-09T07:11:19.962Z,187.96
2023-05-09T07:12:19.977Z,188.63
2023-05-09T07:13:20.077Z,181.85
2023-05-09T07:14:20.092Z,179.42
2023-05-09T07:15:32.397Z,173.41
2023-05-09T07:16:21.073Z,173.66
2023-05-09T07:17:23.417Z,175.15
2023-05-09T07:18:20.010Z,174.00
2023-05-09T07:19:20.101Z,177.61
2023-05-09T07:20:19.981Z,180.25
2023-05-09T07:21:19.965Z,182.96
2023-05-09T07:22:19.986Z,186.24
2023-05-09T07:23:20.058Z,183.22
2023-05-09T07:24:20.086Z,186.46
2023-05-09T07:25:19.961Z,179.58
2023-05-09T07:26:19.967Z,184.25
2023-05-09T07:27:19.928Z,207.90
2023-05-09T07:28:19.932Z,219.11
2023-05-09T07:29:20.070Z,230.94
2023-05-09T07:30:19.918Z,230.13
2023-05-09T07:31:19.910Z,237.21
2023-05-09T07:32:19.920Z,238.64
2023-05-09T07:33:20.078Z,243.09
2023-05-09T07:34:20.096Z,246.42
2023-05-09T07:35:19.895Z,246.84
2023-05-09T07:36:19.875Z,243.81
2023-05-09T07:37:19.865Z,242.84
2023-05-09T07:38:20.094Z,229.86
2023-05-09T07:39:20.164Z,244.01
2023-05-09T07:40:19.842Z,242.99
2023-05-09T07:41:19.845Z,241.97
2023-05-09T07:42:19.841Z,233.01
2023-05-09T07:43:19.812Z,215.56
2023-05-09T07:44:19.831Z,221.96
2023-05-09T07:45:22.024Z,223.93
2023-05-09T07:46:19.915Z,210.83
2023-05-09T07:47:19.796Z,218.40
2023-05-09T07:48:19.804Z,216.86
2023-05-09T07:49:19.777Z,220.20
2023-05-09T07:50:19.764Z,223.32
2023-05-09T07:51:19.777Z,206.12
2023-05-09T07:52:19.769Z,201.01
2023-05-09T07:53:19.734Z,197.03
2023-05-09T07:54:20.085Z,192.01
2023-05-09T07:55:19.821Z,191.90
2023-05-09T07:56:19.726Z,199.05
2023-05-09T07:57:19.725Z,206.17
2023-05-09T07:58:19.736Z,211.82
2023-05-09T07:59:20.100Z,223.23
2023-05-09T08:00:19.703Z,228.13
2023-05-09T08:01:19.699Z,235.00
2023-05-09T08:02:19.730Z,237.69
2023-05-09T08:03:19.815Z,242.25
2023-05-09T08:04:19.719Z,240.38
2023-05-09T08:05:19.657Z,245.19
2023-05-09T08:06:19.657Z,246.02
2023-05-09T08:07:19.654Z,246.85
2023-05-09T08:08:19.636Z,246.43
2023-05-09T08:09:19.655Z,247.73
2023-05-09T08:10:19.642Z,236.89
2023-05-09T08:11:19.701Z,241.75
2023-05-09T08:12:19.635Z,241.73
2023-05-09T08:13:19.636Z,246.41
2023-05-09T08:14:19.616Z,247.12
2023-05-09T08:15:19.603Z,246.89
2023-05-09T08:16:19.694Z,237.72
2023-05-09T08:17:19.620Z,248.89
2023-05-09T08:18:19.580Z,243.61
2023-05-09T08:19:19.612Z,242.44
2023-05-09T08:20:19.585Z,216.92
2023-05-09T08:21:22.090Z,220.35
2023-05-09T08:22:19.824Z,223.16
2023-05-09T08:23:20.116Z,226.27
2023-05-09T08:24:19.853Z,231.86
2023-05-09T08:25:19.864Z,242.98
2023-05-09T08:26:19.887Z,247.02
2023-05-09T08:27:19.940Z,248.96
2023-05-09T08:28:21.677Z,247.56
2023-05-09T08:29:19.978Z,246.52
2023-05-09T08:30:20.013Z,249.30
2023-05-09T08:31:20.130Z,240.00
2023-05-09T08:32:20.116Z,242.64
2023-05-09T08:33:20.116Z,245.72
2023-05-09T08:34:20.170Z,242.38
2023-05-09T08:35:20.200Z,227.66
2023-05-09T08:36:20.293Z,185.04
2023-05-09T08:37:20.311Z,157.26
2023-05-09T08:38:20.404Z,175.56
2023-05-09T08:39:20.666Z,185.92
2023-05-09T08:40:20.500Z,204.45
2023-05-09T08:41:20.557Z,210.65
2023-05-09T08:42:20.596Z,217.01
2023-05-09T08:43:20.730Z,221.21
2023-05-09T08:44:21.160Z,226.25
2023-05-09T08:45:20.728Z,229.36
2023-05-09T08:46:20.798Z,233.77
2023-05-09T08:47:20.818Z,236.59
2023-05-09T08:48:20.803Z,237.16
2023-05-09T08:49:21.125Z,237.97
2023-05-09T08:50:20.955Z,238.45
2023-05-09T08:51:20.904Z,237.74
2023-05-09T08:52:21.047Z,243.09
2023-05-09T08:53:20.958Z,242.35
2023-05-09T08:54:22.899Z,221.25
2023-05-09T08:55:21.140Z,226.24
2023-05-09T08:56:21.017Z,236.74
2023-05-09T08:57:21.046Z,242.96
2023-05-09T08:58:21.089Z,247.96
2023-05-09T08:59:21.210Z,250.00
2023-05-09T09:00:21.378Z,247.21
2023-05-09T09:01:21.177Z,246.94
2023-05-09T09:02:21.170Z,247.48
2023-05-09T09:03:21.185Z,237.83
2023-05-09T09:04:21.659Z,219.99
2023-05-09T09:05:40.283Z,230.63
2023-05-09T09:06:22.211Z,231.22
2023-05-09T09:07:21.195Z,233.00
2023-05-09T09:08:21.195Z,236.55
2023-05-09T09:09:21.196Z,242.97
2023-05-09T09:10:21.216Z,251.22
2023-05-09T09:11:21.158Z,247.39
2023-05-09T09:12:21.151Z,249.56
2023-05-09T09:13:21.208Z,247.10
2023-05-09T09:14:21.621Z,245.62
2023-05-09T09:15:21.231Z,245.44
2023-05-09T09:16:21.208Z,244.40
2023-05-09T09:17:21.281Z,239.88
2023-05-09T09:18:21.114Z,236.76
2023-05-09T09:19:21.127Z,230.89
2023-05-09T09:20:21.177Z,233.66
2023-05-09T09:21:21.113Z,234.66
2023-05-09T09:22:21.110Z,235.18
2023-05-09T09:23:21.142Z,236.39
2023-05-09T09:24:21.093Z,236.71
2023-05-09T09:25:21.083Z,228.61
2023-05-09T09:26:21.069Z,200.55
2023-05-09T09:27:21.074Z,214.04
2023-05-09T09:28:21.117Z,218.75
2023-05-09T09:29:21.638Z,212.00
2023-05-09T09:30:21.190Z,193.49
2023-05-09T09:31:21.261Z,195.39
2023-05-09T09:32:21.246Z,201.77
2023-05-09T09:33:21.248Z,197.01
2023-05-09T09:34:21.676Z,203.23
2023-05-09T09:35:21.265Z,212.06
2023-05-09T09:36:21.298Z,204.96
2023-05-09T09:37:21.312Z,203.05
2023-05-09T09:38:21.329Z,205.28
2023-05-09T09:39:21.343Z,203.20
2023-05-09T09:40:21.359Z,209.11
2023-05-09T09:41:21.405Z,207.52
2023-05-09T09:42:21.405Z,207.48
2023-05-09T09:43:21.434Z,195.61
2023-05-09T09:44:21.643Z,195.67
2023-05-09T09:45:21.502Z,200.60
2023-05-09T09:46:21.563Z,197.09
2023-05-09T09:47:21.571Z,199.70
2023-05-09T09:48:21.646Z,197.04
2023-05-09T09:49:21.653Z,193.28
2023-05-09T09:50:21.532Z,191.36
2023-05-09T09:51:21.578Z,179.14
2023-05-09T09:52:21.550Z,178.13
2023-05-09T09:53:21.557Z,177.75
2023-05-09T09:54:22.134Z,174.43
2023-05-09T09:55:21.597Z,180.60
2023-05-09T09:56:21.615Z,181.36
2023-05-09T09:57:21.638Z,184.17
2023-05-09T09:58:21.609Z,184.76
2023-05-09T09:59:21.611Z,185.81
2023-05-09T10:00:21.607Z,189.12
2023-05-09T10:01:21.800Z,193.89
2023-05-09T10:02:21.605Z,197.62
2023-05-09T10:03:21.752Z,198.88
2023-05-09T10:04:21.666Z,196.54
2023-05-09T10:05:21.630Z,199.96
2023-05-09T10:06:21.612Z,200.51
2023-05-09T10:07:21.635Z,201.44
2023-05-09T10:08:21.631Z,204.21
2023-05-09T10:09:21.629Z,206.03
2023-05-09T10:10:21.695Z,202.96
2023-05-09T10:11:21.625Z,200.82
2023-05-09T10:12:21.599Z,200.65
2023-05-09T10:13:21.696Z,185.48
2023-05-09T10:14:21.646Z,180.41
2023-05-09T10:15:21.629Z,181.42
2023-05-09T10:16:35.600Z,171.84
2023-05-09T10:17:22.932Z,134.08
2023-05-09T10:18:21.862Z,162.06
2023-05-09T10:19:21.758Z,166.39
2023-05-09T10:20:21.608Z,164.36
2023-05-09T10:21:21.595Z,165.50
2023-05-09T10:22:21.595Z,134.39
2023-05-09T10:23:21.607Z,125.12
2023-05-09T10:24:21.649Z,119.58
2023-05-09T10:25:21.629Z,136.49
2023-05-09T10:26:21.575Z,142.19
2023-05-09T10:27:21.598Z,161.24
2023-05-09T10:28:21.581Z,176.31
2023-05-09T10:29:21.579Z,188.90
2023-05-09T10:30:21.569Z,201.77
2023-05-09T10:31:21.613Z,169.77
2023-05-09T10:32:21.553Z,199.17
2023-05-09T10:33:21.554Z,217.30
2023-05-09T10:34:21.649Z,222.81
2023-05-09T10:35:21.635Z,226.13
2023-05-09T10:36:21.530Z,232.37
2023-05-09T10:37:21.557Z,239.13
2023-05-09T10:38:21.594Z,215.57
2023-05-09T10:39:21.660Z,225.38
2023-05-09T10:40:21.550Z,230.59
2023-05-09T10:41:21.567Z,231.35
2023-05-09T10:42:21.579Z,228.53
2023-05-09T10:43:21.580Z,227.73
2023-05-09T10:44:21.698Z,225.22
2023-05-09T10:45:21.587Z,225.70
2023-05-09T10:46:21.614Z,231.40
2023-05-09T10:47:21.610Z,229.07
2023-05-09T10:48:21.597Z,210.34
2023-05-09T10:49:21.665Z,187.57
2023-05-09T10:50:21.642Z,231.13
2023-05-09T10:51:21.680Z,197.42
2023-05-09T10:52:21.594Z,218.74
2023-05-09T10:53:21.613Z,227.24
2023-05-09T10:54:21.651Z,201.32
2023-05-09T10:55:21.610Z,246.39
2023-05-09T10:56:21.625Z,242.85
2023-05-09T10:57:21.597Z,239.64
2023-05-09T10:58:21.578Z,214.12
2023-05-09T10:59:21.668Z,225.11
2023-05-09T11:00:21.580Z,219.54
2023-05-09T11:01:21.649Z,186.94
2023-05-09T11:02:21.612Z,200.18
2023-05-09T11:03:21.713Z,136.16
2023-05-09T11:04:21.686Z,175.41
2023-05-09T11:05:21.590Z,209.85
2023-05-09T11:06:21.614Z,213.52
2023-05-09T11:07:21.683Z,197.15
2023-05-09T11:08:21.570Z,192.18
2023-05-09T11:09:21.600Z,160.36
2023-05-09T11:10:21.591Z,136.01
2023-05-09T11:11:21.598Z,102.26
2023-05-09T11:12:21.605Z,130.80
2023-05-09T11:13:21.644Z,23.88
2023-05-09T11:14:21.678Z,25.44
2023-05-09T11:15:21.693Z,0.00
2023-05-09T11:16:21.614Z,0.00
2023-05-09T11:17:21.691Z,0.00
2023-05-09T11:18:21.625Z,22.17
2023-05-09T11:19:21.622Z,44.20
2023-05-09T11:20:21.637Z,36.55
2023-05-09T11:21:21.678Z,24.04
2023-05-09T11:22:21.687Z,20.84
2023-05-09T11:23:21.771Z,37.85
2023-05-09T11:24:21.689Z,18.46
2023-05-09T11:25:21.711Z,20.09
2023-05-09T11:26:21.711Z,58.32
2023-05-09T11:27:21.744Z,64.12
2023-05-09T11:28:21.781Z,53.91
2023-05-09T11:29:21.763Z,40.95
2023-05-09T11:30:21.809Z,35.60
2023-05-09T11:31:21.843Z,35.23
2023-05-09T11:32:21.896Z,39.50
2023-05-09T11:33:21.851Z,26.41
2023-05-09T11:34:21.882Z,30.69
2023-05-09T11:35:21.895Z,36.81
2023-05-09T11:36:21.924Z,34.36
2023-05-09T11:37:21.935Z,37.11
2023-05-09T11:38:21.977Z,41.08
2023-05-09T11:39:22.065Z,32.98
2023-05-09T11:40:22.035Z,0.00
2023-05-09T11:41:22.001Z,6.75
2023-05-09T11:42:22.005Z,11.90
2023-05-09T11:43:22.014Z,1.54
2023-05-09T11:44:22.050Z,2.77
2023-05-09T11:45:22.080Z,28.71
2023-05-09T11:46:22.074Z,42.34
2023-05-09T11:47:22.154Z,49.22
2023-05-09T11:48:22.148Z,48.08
2023-05-09T11:49:22.240Z,29.59
2023-05-09T11:50:22.217Z,26.02
2023-05-09T11:51:22.246Z,23.86
2023-05-09T11:52:22.264Z,30.86
2023-05-09T11:53:22.327Z,47.13
2023-05-09T11:54:22.369Z,114.43
2023-05-09T11:55:22.555Z,143.60
2023-05-09T11:56:22.422Z,164.57
2023-05-09T11:57:22.429Z,175.92
2023-05-09T11:58:22.466Z,173.29
2023-05-09T11:59:22.499Z,174.82
2023-05-09T12:00:22.513Z,176.87
2023-05-09T12:01:22.538Z,173.97
2023-05-09T12:02:22.657Z,175.85
2023-05-09T12:03:22.705Z,179.17
2023-05-09T12:04:22.632Z,178.01
2023-05-09T12:05:22.715Z,174.05
2023-05-09T12:06:22.653Z,178.27
2023-05-09T12:07:22.679Z,181.60
2023-05-09T12:08:22.711Z,176.33
2023-05-09T12:09:22.716Z,179.17
2023-05-09T12:10:22.830Z,174.44
2023-05-09T12:11:22.878Z,169.64
2023-05-09T12:12:22.798Z,167.76
2023-05-09T12:13:22.836Z,164.91
2023-05-09T12:14:22.814Z,160.33
2023-05-09T12:15:22.890Z,160.32
2023-05-09T12:16:22.909Z,154.60
2023-05-09T12:17:22.920Z,153.67
2023-05-09T12:18:22.907Z,155.47
2023-05-09T12:19:22.925Z,155.96
2023-05-09T12:20:22.929Z,156.27
2023-05-09T12:21:22.959Z,161.97
2023-05-09T12:22:22.959Z,160.02
2023-05-09T12:23:22.989Z,155.18
2023-05-09T12:24:23.005Z,155.94
2023-05-09T12:25:23.027Z,156.35
2023-05-09T12:26:23.030Z,153.49
2023-05-09T12:27:23.158Z,151.23
2023-05-09T12:28:23.082Z,158.00
2023-05-09T12:29:23.071Z,156.64
2023-05-09T12:30:23.121Z,155.09